sensor_id;sensor_type;location;lat;lon;timestamp;pressure;altitude;pressure_sealevel;temperature;humidity
74675;BME280;63200;48.810;12.352;2023-06-05T00:02:06;97556.41;;;15.19;57.44
74675;BME280;63200;48.810;12.352;2023-06-05T00:04:31;97557.38;;;15.14;57.27
74675;BME280;63200;48.810;12.352;2023-06-05T00:06:57;97542.66;;;15.01;57.35
74675;BME280;63200;48.810;12.352;2023-06-05T00:09:22;97520.34;;;14.85;57.54
74675;BME280;63200;48.810;12.352;2023-06-05T00:11:48;97555.44;;;15.14;57.32
74675;BME280;63200;48.810;12.352;2023-06-05T00:14:13;97526.56;;;14.99;57.38
74675;BME280;63200;48.810;12.352;2023-06-05T00:16:38;97558.69;;;15.16;57.74
74675;BME280;63200;48.810;12.352;2023-06-05T00:19:04;97560.41;;;15.12;57.62
74675;BME280;63200;48.810;12.352;2023-06-05T00:21:29;97557.31;;;15.05;58.34
74675;BME280;63200;48.810;12.352;2023-06-05T00:23:55;97555.31;;;14.97;58.78
74675;BME280;63200;48.810;12.352;2023-06-05T00:26:20;97559.59;;;14.89;59.17
74675;BME280;63200;48.810;12.352;2023-06-05T00:28:46;97550.09;;;14.87;59.29
74675;BME280;63200;48.810;12.352;2023-06-05T00:31:11;97555.25;;;14.88;59.16
74675;BME280;63200;48.810;12.352;2023-06-05T00:33:38;97553.94;;;14.86;59.38
74675;BME280;63200;48.810;12.352;2023-06-05T00:36:04;97502.56;;;14.51;59.47
74675;BME280;63200;48.810;12.352;2023-06-05T00:38:29;97538.06;;;14.65;60.15
74675;BME280;63200;48.810;12.352;2023-06-05T00:40:54;97558.84;;;14.75;60.23
74675;BME280;63200;48.810;12.352;2023-06-05T00:43:20;97546.13;;;14.70;60.85
74675;BME280;63200;48.810;12.352;2023-06-05T00:45:45;97544.19;;;14.71;60.76
74675;BME280;63200;48.810;12.352;2023-06-05T00:48:11;97547.63;;;14.76;60.49
74675;BME280;63200;48.810;12.352;2023-06-05T00:50:37;97542.66;;;14.78;60.46
74675;BME280;63200;48.810;12.352;2023-06-05T00:53:03;97547.63;;;14.76;60.63
74675;BME280;63200;48.810;12.352;2023-06-05T00:55:29;97548.38;;;14.68;60.95
74675;BME280;63200;48.810;12.352;2023-06-05T00:57:55;97532.59;;;14.51;60.81
74675;BME280;63200;48.810;12.352;2023-06-05T01:00:21;97548.44;;;14.63;61.06
74675;BME280;63200;48.810;12.352;2023-06-05T01:02:47;97543.94;;;14.58;61.35
74675;BME280;63200;48.810;12.352;2023-06-05T01:05:13;97552.03;;;14.49;61.63
74675;BME280;63200;48.810;12.352;2023-06-05T01:07:39;97546.38;;;14.46;61.03
74675;BME280;63200;48.810;12.352;2023-06-05T01:10:06;97512.78;;;14.23;61.13
74675;BME280;63200;48.810;12.352;2023-06-05T01:12:44;97544.47;;;14.46;61.36
74675;BME280;63200;48.810;12.352;2023-06-05T01:15:11;97543.97;;;14.44;61.06
74675;BME280;63200;48.810;12.352;2023-06-05T01:17:37;97544.59;;;14.41;61.31
74675;BME280;63200;48.810;12.352;2023-06-05T01:20:02;97537.81;;;14.39;61.05
74675;BME280;63200;48.810;12.352;2023-06-05T01:22:29;97538.75;;;14.34;61.41
74675;BME280;63200;48.810;12.352;2023-06-05T01:24:55;97518.56;;;14.21;61.36
74675;BME280;63200;48.810;12.352;2023-06-05T01:27:34;97543.91;;;14.36;61.35
74675;BME280;63200;48.810;12.352;2023-06-05T01:30:16;97537.72;;;14.30;61.32
74675;BME280;63200;48.810;12.352;2023-06-05T01:32:56;97547.97;;;14.24;61.40
74675;BME280;63200;48.810;12.352;2023-06-05T01:35:23;97555.16;;;14.20;61.47
74675;BME280;63200;48.810;12.352;2023-06-05T01:37:53;97543.03;;;14.12;61.99
74675;BME280;63200;48.810;12.352;2023-06-05T01:40:21;97523.84;;;13.90;62.25
74675;BME280;63200;48.810;12.352;2023-06-05T01:42:48;97526.59;;;13.90;62.88
74675;BME280;63200;48.810;12.352;2023-06-05T01:45:15;97539.28;;;14.08;63.35
74675;BME280;63200;48.810;12.352;2023-06-05T01:47:42;97540.28;;;14.12;63.16
74675;BME280;63200;48.810;12.352;2023-06-05T01:50:08;97529.69;;;14.11;62.40
74675;BME280;63200;48.810;12.352;2023-06-05T01:55:50;97526.06;;;14.02;61.06
74675;BME280;63200;48.810;12.352;2023-06-05T01:58:25;97497.47;;;13.85;61.12
74675;BME280;63200;48.810;12.352;2023-06-05T02:00:52;97525.75;;;14.03;60.69
74675;BME280;63200;48.810;12.352;2023-06-05T02:03:27;97514.34;;;14.01;59.76
74675;BME280;63200;48.810;12.352;2023-06-05T02:05:53;97520.59;;;14.02;59.18
74675;BME280;63200;48.810;12.352;2023-06-05T02:08:18;97516.03;;;13.97;58.97
74675;BME280;63200;48.810;12.352;2023-06-05T02:10:48;97461.44;;;13.60;59.08
74675;BME280;63200;48.810;12.352;2023-06-05T02:13:14;97492.56;;;13.73;59.52
74675;BME280;63200;48.810;12.352;2023-06-05T02:15:44;97520.03;;;13.91;60.15
74675;BME280;63200;48.810;12.352;2023-06-05T02:18:10;97517.88;;;13.88;60.29
74675;BME280;63200;48.810;12.352;2023-06-05T02:20:35;97522.34;;;13.83;60.39
74675;BME280;63200;48.810;12.352;2023-06-05T02:23:01;97520.13;;;13.86;60.64
74675;BME280;63200;48.810;12.352;2023-06-05T02:25:27;97520.13;;;13.86;61.46
74675;BME280;63200;48.810;12.352;2023-06-05T02:27:54;97522.16;;;13.80;62.02
74675;BME280;63200;48.810;12.352;2023-06-05T02:30:19;97512.75;;;13.72;62.05
74675;BME280;63200;48.810;12.352;2023-06-05T02:32:45;97507.09;;;13.69;62.45
74675;BME280;63200;48.810;12.352;2023-06-05T02:35:11;97506.72;;;13.61;61.95
74675;BME280;63200;48.810;12.352;2023-06-05T02:37:37;97512.75;;;13.58;61.62
74675;BME280;63200;48.810;12.352;2023-06-05T02:40:09;97514.47;;;13.54;61.09
74675;BME280;63200;48.810;12.352;2023-06-05T02:42:34;97496.25;;;13.36;61.60
74675;BME280;63200;48.810;12.352;2023-06-05T02:45:00;97506.31;;;13.40;61.78
74675;BME280;63200;48.810;12.352;2023-06-05T02:47:26;97476.97;;;13.18;61.90
74675;BME280;63200;48.810;12.352;2023-06-05T02:49:51;97500.63;;;13.37;61.95
74675;BME280;63200;48.810;12.352;2023-06-05T02:52:16;97506.94;;;13.32;62.33
74675;BME280;63200;48.810;12.352;2023-06-05T02:54:41;97507.75;;;13.05;62.61
74675;BME280;63200;48.810;12.352;2023-06-05T02:57:07;97507.53;;;13.01;63.28
74675;BME280;63200;48.810;12.352;2023-06-05T02:59:33;97512.66;;;13.03;63.90
74675;BME280;63200;48.810;12.352;2023-06-05T03:02:07;97504.28;;;12.99;64.13
74675;BME280;63200;48.810;12.352;2023-06-05T03:04:32;97501.34;;;12.95;64.29
74675;BME280;63200;48.810;12.352;2023-06-05T03:06:58;97509.84;;;12.94;64.27
74675;BME280;63200;48.810;12.352;2023-06-05T03:09:24;97505.41;;;12.98;64.80
74675;BME280;63200;48.810;12.352;2023-06-05T03:11:50;97506.72;;;13.00;64.92
74675;BME280;63200;48.810;12.352;2023-06-05T03:14:15;97505.59;;;13.02;64.78
74675;BME280;63200;48.810;12.352;2023-06-05T03:16:40;97447.38;;;12.64;64.96
74675;BME280;63200;48.810;12.352;2023-06-05T03:19:09;97496.38;;;12.83;65.04
74675;BME280;63200;48.810;12.352;2023-06-05T03:21:38;97493.53;;;12.75;65.22
74675;BME280;63200;48.810;12.352;2023-06-05T03:24:06;97486.84;;;12.67;66.09
74675;BME280;63200;48.810;12.352;2023-06-05T03:26:32;97491.78;;;12.65;66.47
74675;BME280;63200;48.810;12.352;2023-06-05T03:28:58;97492.59;;;12.65;66.48
74675;BME280;63200;48.810;12.352;2023-06-05T03:31:23;97493.91;;;12.68;66.44
74675;BME280;63200;48.810;12.352;2023-06-05T03:33:48;97490.31;;;12.73;66.22
74675;BME280;63200;48.810;12.352;2023-06-05T03:36:13;97493.53;;;12.75;66.25
74675;BME280;63200;48.810;12.352;2023-06-05T03:38:42;97486.03;;;12.66;66.43
74675;BME280;63200;48.810;12.352;2023-06-05T03:41:08;97501.91;;;12.78;66.53
74675;BME280;63200;48.810;12.352;2023-06-05T03:43:34;97502.94;;;12.82;66.58
74675;BME280;63200;48.810;12.352;2023-06-05T03:45:59;97502.84;;;12.88;66.04
74675;BME280;63200;48.810;12.352;2023-06-05T03:48:24;97493.28;;;12.90;66.04
74675;BME280;63200;48.810;12.352;2023-06-05T03:50:50;97506.72;;;13.00;65.42
74675;BME280;63200;48.810;12.352;2023-06-05T03:53:17;97508.63;;;13.00;64.93
74675;BME280;63200;48.810;12.352;2023-06-05T03:55:44;97505.41;;;12.98;65.23
74675;BME280;63200;48.810;12.352;2023-06-05T03:58:12;97505.69;;;12.96;65.09
74675;BME280;63200;48.810;12.352;2023-06-05T04:00:47;97510.31;;;12.96;65.22
74675;BME280;63200;48.810;12.352;2023-06-05T04:03:15;97501.00;;;12.83;66.11
74675;BME280;63200;48.810;12.352;2023-06-05T04:05:41;97523.81;;;12.87;66.11
74675;BME280;63200;48.810;12.352;2023-06-05T04:08:08;97521.31;;;12.91;66.02
74675;BME280;63200;48.810;12.352;2023-06-05T04:10:37;97521.91;;;12.88;66.16
74675;BME280;63200;48.810;12.352;2023-06-05T04:13:03;97525.13;;;12.90;66.05
74675;BME280;63200;48.810;12.352;2023-06-05T04:15:29;97528.91;;;12.94;65.96
74675;BME280;63200;48.810;12.352;2023-06-05T04:17:55;97528.59;;;12.95;65.99
74675;BME280;63200;48.810;12.352;2023-06-05T04:20:20;97518.13;;;13.03;65.65
74675;BME280;63200;48.810;12.352;2023-06-05T04:22:46;97528.94;;;13.08;65.40
74675;BME280;63200;48.810;12.352;2023-06-05T04:25:12;97530.84;;;13.07;65.20
74675;BME280;63200;48.810;12.352;2023-06-05T04:27:38;97521.47;;;13.13;65.36
74675;BME280;63200;48.810;12.352;2023-06-05T04:30:09;97521.97;;;13.15;64.89
74675;BME280;63200;48.810;12.352;2023-06-05T04:32:35;97522.47;;;13.17;65.06
74675;BME280;63200;48.810;12.352;2023-06-05T04:35:04;97512.69;;;13.16;64.87
74675;BME280;63200;48.810;12.352;2023-06-05T04:37:30;97521.28;;;13.24;64.33
74675;BME280;63200;48.810;12.352;2023-06-05T04:39:56;97511.28;;;13.33;63.94
74675;BME280;63200;48.810;12.352;2023-06-05T04:42:21;97515.91;;;13.38;64.20
74675;BME280;63200;48.810;12.352;2023-06-05T04:45:00;97495.66;;;13.25;63.16
74675;BME280;63200;48.810;12.352;2023-06-05T04:47:28;97510.63;;;13.41;62.84
74675;BME280;63200;48.810;12.352;2023-06-05T04:49:54;97518.00;;;13.41;63.78
74675;BME280;63200;48.810;12.352;2023-06-05T04:52:23;97518.06;;;13.36;63.14
74675;BME280;63200;48.810;12.352;2023-06-05T04:54:49;97523.75;;;13.39;62.74
74675;BME280;63200;48.810;12.352;2023-06-05T04:57:15;97517.59;;;13.47;62.72
74675;BME280;63200;48.810;12.352;2023-06-05T04:59:44;97520.13;;;13.58;62.92
74675;BME280;63200;48.810;12.352;2023-06-05T05:02:10;97514.91;;;13.61;63.29
74675;BME280;63200;48.810;12.352;2023-06-05T05:04:35;97520.94;;;13.58;63.48
74675;BME280;63200;48.810;12.352;2023-06-05T05:07:01;97525.59;;;13.58;63.56
74675;BME280;63200;48.810;12.352;2023-06-05T05:09:30;97520.63;;;13.60;63.73
74675;BME280;63200;48.810;12.352;2023-06-05T05:11:59;97520.84;;;13.63;63.87
74675;BME280;63200;48.810;12.352;2023-06-05T05:14:25;97508.50;;;13.66;64.13
74675;BME280;63200;48.810;12.352;2023-06-05T05:16:53;97507.41;;;13.67;64.15
74675;BME280;63200;48.810;12.352;2023-06-05T05:19:20;97513.97;;;13.80;63.77
74675;BME280;63200;48.810;12.352;2023-06-05T05:21:47;97518.50;;;13.85;63.63
74675;BME280;63200;48.810;12.352;2023-06-05T05:24:13;97521.13;;;14.04;63.00
74675;BME280;63200;48.810;12.352;2023-06-05T05:26:38;97523.69;;;14.23;63.01
74675;BME280;63200;48.810;12.352;2023-06-05T05:29:05;97520.09;;;14.50;62.45
74675;BME280;63200;48.810;12.352;2023-06-05T05:31:30;97519.28;;;14.72;60.83
74675;BME280;63200;48.810;12.352;2023-06-05T05:33:57;97517.19;;;14.92;59.74
74675;BME280;63200;48.810;12.352;2023-06-05T05:36:23;97530.59;;;15.02;59.64
74675;BME280;63200;48.810;12.352;2023-06-05T05:38:49;97502.16;;;15.03;58.74
74675;BME280;63200;48.810;12.352;2023-06-05T05:41:14;97531.91;;;15.36;57.63
74675;BME280;63200;48.810;12.352;2023-06-05T05:43:39;97530.38;;;15.53;56.95
74675;BME280;63200;48.810;12.352;2023-06-05T05:46:05;97492.53;;;15.46;56.43
74675;BME280;63200;48.810;12.352;2023-06-05T05:48:30;97525.34;;;15.86;56.31
74675;BME280;63200;48.810;12.352;2023-06-05T05:50:56;97531.84;;;16.16;55.55
74675;BME280;63200;48.810;12.352;2023-06-05T05:53:21;97537.41;;;16.60;54.65
74675;BME280;63200;48.810;12.352;2023-06-05T05:55:46;97534.63;;;17.04;53.36
74675;BME280;63200;48.810;12.352;2023-06-05T05:58:11;97533.28;;;17.28;52.43
74675;BME280;63200;48.810;12.352;2023-06-05T06:00:37;97521.03;;;17.25;52.60
74675;BME280;63200;48.810;12.352;2023-06-05T06:03:03;97537.94;;;17.36;52.55
74675;BME280;63200;48.810;12.352;2023-06-05T06:05:28;97536.75;;;17.55;51.82
74675;BME280;63200;48.810;12.352;2023-06-05T06:07:55;97535.91;;;17.63;51.02
74675;BME280;63200;48.810;12.352;2023-06-05T06:10:21;97535.88;;;17.72;50.50
74675;BME280;63200;48.810;12.352;2023-06-05T06:12:46;97530.91;;;17.65;50.39
74675;BME280;63200;48.810;12.352;2023-06-05T06:15:12;97533.00;;;17.59;50.33
74675;BME280;63200;48.810;12.352;2023-06-05T06:17:37;97529.72;;;17.36;51.97
74675;BME280;63200;48.810;12.352;2023-06-05T06:20:04;97533.59;;;17.35;52.75
74675;BME280;63200;48.810;12.352;2023-06-05T06:22:30;97532.56;;;17.48;52.28
74675;BME280;63200;48.810;12.352;2023-06-05T06:24:56;97520.38;;;17.67;51.74
74675;BME280;63200;48.810;12.352;2023-06-05T06:27:22;97528.34;;;17.90;51.59
74675;BME280;63200;48.810;12.352;2023-06-05T06:29:49;97529.47;;;17.97;51.83
74675;BME280;63200;48.810;12.352;2023-06-05T06:32:16;97542.03;;;18.07;51.16
74675;BME280;63200;48.810;12.352;2023-06-05T06:34:42;97539.28;;;18.07;50.20
74675;BME280;63200;48.810;12.352;2023-06-05T06:37:14;97539.69;;;18.18;49.98
74675;BME280;63200;48.810;12.352;2023-06-05T06:39:42;97540.50;;;18.40;49.31
74675;BME280;63200;48.810;12.352;2023-06-05T06:42:09;97539.56;;;18.57;49.75
74675;BME280;63200;48.810;12.352;2023-06-05T06:44:43;97545.31;;;18.64;49.97
74675;BME280;63200;48.810;12.352;2023-06-05T06:47:09;97544.34;;;18.69;48.87
74675;BME280;63200;48.810;12.352;2023-06-05T06:49:34;97552.09;;;18.88;48.63
74675;BME280;63200;48.810;12.352;2023-06-05T06:52:00;97551.56;;;18.94;47.33
74675;BME280;63200;48.810;12.352;2023-06-05T06:54:26;97551.53;;;19.15;46.88
74675;BME280;63200;48.810;12.352;2023-06-05T06:56:54;97547.72;;;19.41;46.51
74675;BME280;63200;48.810;12.352;2023-06-05T06:59:20;97552.22;;;19.58;45.86
74675;BME280;63200;48.810;12.352;2023-06-05T07:01:46;97547.94;;;19.48;46.35
74675;BME280;63200;48.810;12.352;2023-06-05T07:04:17;97548.75;;;19.61;46.84
74675;BME280;63200;48.810;12.352;2023-06-05T07:06:48;97542.50;;;19.86;44.74
74675;BME280;63200;48.810;12.352;2023-06-05T07:09:13;97518.94;;;19.76;45.09
74675;BME280;63200;48.810;12.352;2023-06-05T07:11:39;97545.72;;;20.12;44.86
74675;BME280;63200;48.810;12.352;2023-06-05T07:14:05;97546.41;;;20.22;43.83
74675;BME280;63200;48.810;12.352;2023-06-05T07:16:32;97543.75;;;20.13;44.88
74675;BME280;63200;48.810;12.352;2023-06-05T07:18:58;97544.78;;;20.21;45.14
74675;BME280;63200;48.810;12.352;2023-06-05T07:21:23;97540.19;;;20.12;46.59
74675;BME280;63200;48.810;12.352;2023-06-05T07:23:49;97545.25;;;20.10;46.40
74675;BME280;63200;48.810;12.352;2023-06-05T07:26:17;97548.22;;;20.05;46.98
74675;BME280;63200;48.810;12.352;2023-06-05T07:28:43;97544.66;;;20.17;46.28
74675;BME280;63200;48.810;12.352;2023-06-05T07:31:08;97545.00;;;20.16;45.92
74675;BME280;63200;48.810;12.352;2023-06-05T07:33:34;97547.06;;;20.19;45.07
74675;BME280;63200;48.810;12.352;2023-06-05T07:36:00;97551.75;;;20.43;45.00
74675;BME280;63200;48.810;12.352;2023-06-05T07:38:25;97545.69;;;20.90;44.30
74675;BME280;63200;48.810;12.352;2023-06-05T07:40:52;97549.38;;;21.10;42.59
74675;BME280;63200;48.810;12.352;2023-06-05T07:43:17;97539.25;;;21.30;43.23
74675;BME280;63200;48.810;12.352;2023-06-05T07:45:43;97544.25;;;21.41;43.15
74675;BME280;63200;48.810;12.352;2023-06-05T07:48:08;97544.56;;;21.84;41.98
74675;BME280;63200;48.810;12.352;2023-06-05T07:50:33;97540.97;;;22.15;41.98
74675;BME280;63200;48.810;12.352;2023-06-05T07:52:58;97531.56;;;22.36;40.34
74675;BME280;63200;48.810;12.352;2023-06-05T07:55:24;97531.69;;;22.78;40.57
74675;BME280;63200;48.810;12.352;2023-06-05T07:57:50;97538.47;;;23.01;41.28
74675;BME280;63200;48.810;12.352;2023-06-05T08:00:18;97539.84;;;23.10;39.97
74675;BME280;63200;48.810;12.352;2023-06-05T08:02:44;97535.31;;;23.22;40.31
74675;BME280;63200;48.810;12.352;2023-06-05T08:05:09;97537.38;;;23.48;40.65
74675;BME280;63200;48.810;12.352;2023-06-05T08:07:35;97530.19;;;23.43;41.03
74675;BME280;63200;48.810;12.352;2023-06-05T08:10:00;97532.28;;;23.50;39.97
74675;BME280;63200;48.810;12.352;2023-06-05T08:12:25;97527.03;;;23.45;40.65
74675;BME280;63200;48.810;12.352;2023-06-05T08:14:51;97520.44;;;23.30;39.57
74675;BME280;63200;48.810;12.352;2023-06-05T08:17:16;97523.81;;;23.20;39.67
74675;BME280;63200;48.810;12.352;2023-06-05T08:19:42;97522.13;;;23.58;40.18
74675;BME280;63200;48.810;12.352;2023-06-05T08:22:07;97524.34;;;23.95;39.46
74675;BME280;63200;48.810;12.352;2023-06-05T08:24:33;97511.38;;;23.79;38.77
74675;BME280;63200;48.810;12.352;2023-06-05T08:26:58;97537.75;;;24.47;39.22
74675;BME280;63200;48.810;12.352;2023-06-05T08:29:24;97536.00;;;24.35;37.99
74675;BME280;63200;48.810;12.352;2023-06-05T08:31:50;97492.03;;;24.37;39.52
74675;BME280;63200;48.810;12.352;2023-06-05T08:34:15;97528.75;;;24.84;37.97
74675;BME280;63200;48.810;12.352;2023-06-05T08:36:40;97529.38;;;24.43;37.82
74675;BME280;63200;48.810;12.352;2023-06-05T08:39:07;97527.75;;;24.38;39.02
74675;BME280;63200;48.810;12.352;2023-06-05T08:41:33;97507.47;;;24.07;40.19
74675;BME280;63200;48.810;12.352;2023-06-05T08:44:00;97529.19;;;24.59;39.75
74675;BME280;63200;48.810;12.352;2023-06-05T08:46:29;97530.56;;;24.69;40.24
74675;BME280;63200;48.810;12.352;2023-06-05T08:48:57;97539.22;;;24.67;38.24
74675;BME280;63200;48.810;12.352;2023-06-05T08:51:22;97530.34;;;24.54;38.53
74675;BME280;63200;48.810;12.352;2023-06-05T08:53:57;97531.25;;;24.96;36.33
74675;BME280;63200;48.810;12.352;2023-06-05T08:56:28;97506.03;;;25.12;37.77
74675;BME280;63200;48.810;12.352;2023-06-05T08:58:54;97523.16;;;25.55;39.30
74675;BME280;63200;48.810;12.352;2023-06-05T09:01:20;97524.44;;;26.14;37.82
74675;BME280;63200;48.810;12.352;2023-06-05T09:03:46;97521.44;;;26.40;36.33
74675;BME280;63200;48.810;12.352;2023-06-05T09:06:11;97515.53;;;26.56;34.49
74675;BME280;63200;48.810;12.352;2023-06-05T09:08:37;97520.34;;;26.59;34.88
74675;BME280;63200;48.810;12.352;2023-06-05T09:11:28;97513.19;;;25.99;35.33
74675;BME280;63200;48.810;12.352;2023-06-05T09:13:56;97513.13;;;25.88;35.05
74675;BME280;63200;48.810;12.352;2023-06-05T09:16:24;97519.09;;;26.46;36.15
74675;BME280;63200;48.810;12.352;2023-06-05T09:18:57;97510.19;;;27.03;35.21
74675;BME280;63200;48.810;12.352;2023-06-05T09:21:25;97513.88;;;27.40;33.60
74675;BME280;63200;48.810;12.352;2023-06-05T09:24:10;97509.13;;;27.55;33.87
74675;BME280;63200;48.810;12.352;2023-06-05T09:29:20;97506.63;;;27.17;33.77
74675;BME280;63200;48.810;12.352;2023-06-05T09:31:46;97509.06;;;27.30;33.93
74675;BME280;63200;48.810;12.352;2023-06-05T09:34:20;97503.91;;;27.28;33.24
74675;BME280;63200;48.810;12.352;2023-06-05T09:36:46;97503.50;;;27.30;34.15
74675;BME280;63200;48.810;12.352;2023-06-05T09:39:14;97472.81;;;27.19;33.20
74675;BME280;63200;48.810;12.352;2023-06-05T09:41:44;97474.84;;;27.80;32.51
74675;BME280;63200;48.810;12.352;2023-06-05T09:44:10;97483.97;;;27.15;32.29
74675;BME280;63200;48.810;12.352;2023-06-05T09:46:50;97514.72;;;27.80;33.02
74675;BME280;63200;48.810;12.352;2023-06-05T09:49:15;97509.13;;;28.05;33.25
74675;BME280;63200;48.810;12.352;2023-06-05T09:51:43;97512.72;;;27.77;33.49
74675;BME280;63200;48.810;12.352;2023-06-05T09:54:09;97485.53;;;27.20;35.42
74675;BME280;63200;48.810;12.352;2023-06-05T09:56:36;97503.16;;;26.43;36.32
74675;BME280;63200;48.810;12.352;2023-06-05T09:59:04;97497.59;;;26.47;35.36
74675;BME280;63200;48.810;12.352;2023-06-05T10:01:31;97504.38;;;26.49;35.16
74675;BME280;63200;48.810;12.352;2023-06-05T10:04:05;97495.88;;;27.08;36.97
74675;BME280;63200;48.810;12.352;2023-06-05T10:06:32;97512.03;;;26.70;35.81
74675;BME280;63200;48.810;12.352;2023-06-05T10:08:58;97497.13;;;27.33;35.57
74675;BME280;63200;48.810;12.352;2023-06-05T10:11:26;97497.13;;;27.33;35.33
74675;BME280;63200;48.810;12.352;2023-06-05T10:13:52;97497.00;;;26.89;35.71
74675;BME280;63200;48.810;12.352;2023-06-05T10:16:18;97501.09;;;26.29;35.19
74675;BME280;63200;48.810;12.352;2023-06-05T10:18:48;97466.56;;;24.92;37.65
74675;BME280;63200;48.810;12.352;2023-06-05T10:21:17;97497.75;;;24.78;38.46
74675;BME280;63200;48.810;12.352;2023-06-05T10:27:23;97495.72;;;24.75;39.73
74675;BME280;63200;48.810;12.352;2023-06-05T10:38:23;97465.31;;;24.25;39.59
74675;BME280;63200;48.810;12.352;2023-06-05T10:40:54;97480.97;;;25.42;39.55
74675;BME280;63200;48.810;12.352;2023-06-05T10:43:35;97486.63;;;25.16;39.52
74675;BME280;63200;48.810;12.352;2023-06-05T10:46:02;97493.06;;;24.55;41.08
74675;BME280;63200;48.810;12.352;2023-06-05T10:49:07;97491.28;;;24.40;41.80
74675;BME280;63200;48.810;12.352;2023-06-05T10:54:12;97491.59;;;24.95;43.60
74675;BME280;63200;48.810;12.352;2023-06-05T10:56:57;97443.75;;;25.54;38.79
74675;BME280;63200;48.810;12.352;2023-06-05T11:10:14;97485.94;;;27.07;36.60
74675;BME280;63200;48.810;12.352;2023-06-05T11:17:55;97474.06;;;27.86;37.59
74675;BME280;63200;48.810;12.352;2023-06-05T11:27:50;97473.44;;;26.69;39.50
74675;BME280;63200;48.810;12.352;2023-06-05T11:30:18;97469.78;;;26.50;37.94
74675;BME280;63200;48.810;12.352;2023-06-05T11:32:45;97446.63;;;26.28;39.52
74675;BME280;63200;48.810;12.352;2023-06-05T11:35:10;97476.41;;;26.20;41.75
74675;BME280;63200;48.810;12.352;2023-06-05T11:37:36;97474.81;;;25.67;41.52
74675;BME280;63200;48.810;12.352;2023-06-05T11:40:05;97464.50;;;26.27;41.91
74675;BME280;63200;48.810;12.352;2023-06-05T11:42:34;97466.69;;;26.00;41.16
74675;BME280;63200;48.810;12.352;2023-06-05T11:45:00;97472.94;;;25.78;42.03
74675;BME280;63200;48.810;12.352;2023-06-05T11:47:27;97482.09;;;25.86;41.48
74675;BME280;63200;48.810;12.352;2023-06-05T11:50:06;97470.16;;;26.45;40.53
74675;BME280;63200;48.810;12.352;2023-06-05T11:52:35;97472.91;;;26.34;40.40
74675;BME280;63200;48.810;12.352;2023-06-05T11:57:43;97439.63;;;25.37;41.23
74675;BME280;63200;48.810;12.352;2023-06-05T12:00:10;97477.97;;;25.62;40.58
74675;BME280;63200;48.810;12.352;2023-06-05T12:02:37;97473.94;;;25.56;41.82
74675;BME280;63200;48.810;12.352;2023-06-05T12:05:05;97437.91;;;25.70;41.70
74675;BME280;63200;48.810;12.352;2023-06-05T12:07:31;97477.47;;;26.01;42.46
74675;BME280;63200;48.810;12.352;2023-06-05T12:10:11;97474.97;;;25.85;41.67
74675;BME280;63200;48.810;12.352;2023-06-05T12:12:53;97472.31;;;25.51;43.60
74675;BME280;63200;48.810;12.352;2023-06-05T12:15:20;97476.69;;;26.04;40.68
74675;BME280;63200;48.810;12.352;2023-06-05T12:17:50;97470.50;;;26.33;41.37
74675;BME280;63200;48.810;12.352;2023-06-05T12:20:19;97467.34;;;26.34;39.52
74675;BME280;63200;48.810;12.352;2023-06-05T12:22:45;97453.56;;;25.97;41.77
74675;BME280;63200;48.810;12.352;2023-06-05T12:25:19;97476.78;;;26.19;41.94
74675;BME280;63200;48.810;12.352;2023-06-05T12:27:45;97421.53;;;26.21;41.50
74675;BME280;63200;48.810;12.352;2023-06-05T12:30:11;97471.25;;;26.22;40.69
74675;BME280;63200;48.810;12.352;2023-06-05T12:32:37;97471.91;;;25.53;41.18
74675;BME280;63200;48.810;12.352;2023-06-05T12:35:04;97476.69;;;25.15;42.11
74675;BME280;63200;48.810;12.352;2023-06-05T12:37:32;97468.69;;;25.06;42.83
74675;BME280;63200;48.810;12.352;2023-06-05T12:40:00;97468.72;;;24.41;42.49
74675;BME280;63200;48.810;12.352;2023-06-05T12:42:26;97468.13;;;23.98;42.63
74675;BME280;63200;48.810;12.352;2023-06-05T12:44:52;97463.03;;;24.04;43.99
74675;BME280;63200;48.810;12.352;2023-06-05T12:47:17;97452.78;;;24.35;45.09
74675;BME280;63200;48.810;12.352;2023-06-05T12:49:42;97458.91;;;24.82;42.08
74675;BME280;63200;48.810;12.352;2023-06-05T12:52:08;97456.03;;;25.08;40.30
74675;BME280;63200;48.810;12.352;2023-06-05T12:54:35;97461.16;;;25.48;40.58
74675;BME280;63200;48.810;12.352;2023-06-05T12:57:01;97455.69;;;25.55;40.09
74675;BME280;63200;48.810;12.352;2023-06-05T12:59:26;97457.44;;;24.95;41.78
74675;BME280;63200;48.810;12.352;2023-06-05T13:01:51;97456.97;;;24.86;42.67
74675;BME280;63200;48.810;12.352;2023-06-05T13:04:16;97460.94;;;24.85;42.30
74675;BME280;63200;48.810;12.352;2023-06-05T13:06:42;97461.16;;;24.38;41.32
74675;BME280;63200;48.810;12.352;2023-06-05T13:09:07;97462.09;;;23.92;41.46
74675;BME280;63200;48.810;12.352;2023-06-05T13:11:34;97462.94;;;23.97;42.55
74675;BME280;63200;48.810;12.352;2023-06-05T13:13:59;97446.59;;;23.65;42.54
74675;BME280;63200;48.810;12.352;2023-06-05T13:16:26;97444.81;;;23.26;43.40
74675;BME280;63200;48.810;12.352;2023-06-05T13:18:51;97467.75;;;23.26;44.54
74675;BME280;63200;48.810;12.352;2023-06-05T13:21:16;97453.06;;;23.03;45.29
74675;BME280;63200;48.810;12.352;2023-06-05T13:23:42;97422.81;;;23.13;44.87
74675;BME280;63200;48.810;12.352;2023-06-05T13:26:07;97440.38;;;23.44;43.49
74675;BME280;63200;48.810;12.352;2023-06-05T13:28:33;97458.41;;;24.11;42.82
74675;BME280;63200;48.810;12.352;2023-06-05T13:30:58;97465.56;;;24.43;42.16
74675;BME280;63200;48.810;12.352;2023-06-05T13:33:23;97468.06;;;24.55;41.33
74675;BME280;63200;48.810;12.352;2023-06-05T13:35:50;97462.06;;;24.50;41.65
74675;BME280;63200;48.810;12.352;2023-06-05T13:38:15;97460.84;;;24.77;41.81